createdAt,value
2017-12-28T00:00:40.125Z,22.30
2017-12-28T00:01:40.088Z,22.90
2017-12-28T00:02:40.045Z,22.80
2017-12-28T00:03:40.000Z,23.30
2017-12-28T00:04:39.957Z,23.20
2017-12-28T00:05:39.913Z,19.90
2017-12-28T00:06:39.874Z,20.80
2017-12-28T00:07:39.831Z,20.50
2017-12-28T00:08:39.790Z,24.70
2017-12-28T00:09:39.750Z,26.50
2017-12-28T00:10:39.707Z,23.10
2017-12-28T00:11:39.672Z,23.10
2017-12-28T00:12:39.625Z,22.00
2017-12-28T00:13:39.585Z,21.80
2017-12-28T00:14:39.548Z,23.40
2017-12-28T00:15:39.498Z,21.70
2017-12-28T00:16:39.460Z,21.60
2017-12-28T00:17:39.415Z,22.70
2017-12-28T00:18:39.373Z,20.90
2017-12-28T00:19:39.361Z,23.00
2017-12-28T00:20:39.287Z,23.00
2017-12-28T00:21:39.249Z,24.00
2017-12-28T00:22:39.213Z,24.40
2017-12-28T00:23:39.165Z,21.60
2017-12-28T00:24:39.129Z,23.10
2017-12-28T00:25:39.082Z,22.60
2017-12-28T00:26:39.040Z,23.60
2017-12-28T00:27:38.995Z,26.20
2017-12-28T00:28:38.958Z,27.70
2017-12-28T00:29:38.921Z,25.60
2017-12-28T00:30:38.872Z,21.80
2017-12-28T00:31:38.834Z,21.60
2017-12-28T00:32:38.788Z,24.30
2017-12-28T00:33:38.749Z,21.70
2017-12-28T00:34:38.711Z,21.10
2017-12-28T00:35:38.660Z,20.70
2017-12-28T00:36:38.621Z,21.20
2017-12-28T00:37:38.584Z,21.30
2017-12-28T00:38:38.541Z,21.00
2017-12-28T00:39:38.491Z,21.40
2017-12-28T00:40:38.465Z,21.90
2017-12-28T00:41:38.417Z,20.00
2017-12-28T00:42:38.368Z,22.10
2017-12-28T00:43:38.392Z,21.40
2017-12-28T00:44:38.285Z,20.90
2017-12-28T00:45:38.252Z,21.20
2017-12-28T00:46:38.207Z,22.10
2017-12-28T00:47:38.197Z,20.30
2017-12-28T00:48:38.122Z,20.00
2017-12-28T00:49:38.077Z,22.00
2017-12-28T00:50:38.051Z,19.90
2017-12-28T00:51:37.994Z,21.60
2017-12-28T00:52:37.951Z,22.00
2017-12-28T00:53:37.916Z,20.80
2017-12-28T00:54:37.872Z,21.70
2017-12-28T00:55:37.831Z,19.60
2017-12-28T00:56:37.786Z,23.00
2017-12-28T00:57:37.742Z,21.10
2017-12-28T00:58:37.700Z,20.40
2017-12-28T00:59:37.660Z,19.90
2017-12-28T01:00:37.616Z,21.50
2017-12-28T01:01:37.597Z,21.00
2017-12-28T01:02:37.532Z,23.10
2017-12-28T01:03:37.491Z,19.80
2017-12-28T01:04:37.451Z,21.70
2017-12-28T01:05:37.409Z,20.70
2017-12-28T01:06:37.368Z,22.00
2017-12-28T01:07:37.352Z,20.10
2017-12-28T01:08:37.282Z,20.10
2017-12-28T01:09:37.247Z,22.40
2017-12-28T01:10:37.230Z,21.30
2017-12-28T01:11:37.162Z,21.10
2017-12-28T01:12:37.120Z,21.30
2017-12-28T01:13:37.073Z,20.80
2017-12-28T01:14:37.042Z,20.60
2017-12-28T01:15:36.988Z,20.20
2017-12-28T01:16:36.952Z,19.20
2017-12-28T01:17:36.921Z,19.30
2017-12-28T01:18:36.882Z,20.20
2017-12-28T01:19:36.835Z,18.40
2017-12-28T01:20:36.787Z,19.60
2017-12-28T01:21:36.749Z,21.60
2017-12-28T01:22:36.761Z,18.70
2017-12-28T01:23:36.656Z,21.30
2017-12-28T01:24:36.614Z,18.80
2017-12-28T01:25:36.571Z,19.90
2017-12-28T01:26:36.530Z,18.70
2017-12-28T01:27:36.495Z,21.10
2017-12-28T01:28:36.446Z,17.30
2017-12-28T01:29:36.411Z,22.60
2017-12-28T01:30:36.361Z,19.30
2017-12-28T01:31:36.332Z,18.70
2017-12-28T01:32:36.313Z,18.60
2017-12-28T01:33:36.236Z,19.30
2017-12-28T01:34:36.204Z,21.10
2017-12-28T01:35:36.155Z,19.20
2017-12-28T01:36:36.114Z,19.30
2017-12-28T01:37:36.072Z,19.40
2017-12-28T01:38:36.038Z,19.30
2017-12-28T01:39:35.993Z,19.70
2017-12-28T01:40:35.945Z,19.80
2017-12-28T01:41:35.908Z,18.90
2017-12-28T01:42:35.880Z,19.90
2017-12-28T01:43:35.828Z,19.90
2017-12-28T01:44:35.780Z,18.70
2017-12-28T01:45:35.742Z,20.20
2017-12-28T01:46:35.700Z,22.40
2017-12-28T01:47:35.656Z,20.30
2017-12-28T01:48:35.620Z,18.90
2017-12-28T01:49:35.573Z,20.60
2017-12-28T01:50:35.548Z,19.10
2017-12-28T01:51:35.489Z,19.90
2017-12-28T01:52:35.452Z,21.20
2017-12-28T01:53:35.416Z,22.10
2017-12-28T01:54:35.374Z,19.00
2017-12-28T01:55:35.326Z,19.90
2017-12-28T01:56:35.288Z,19.00
2017-12-28T01:57:35.240Z,19.70
2017-12-28T01:58:35.225Z,18.70
2017-12-28T01:59:35.160Z,17.70
2017-12-28T02:00:35.116Z,20.20
2017-12-28T02:01:35.077Z,19.00
2017-12-28T02:02:35.035Z,18.10
2017-12-28T02:03:34.993Z,18.70
2017-12-28T02:04:34.949Z,18.80
2017-12-28T02:05:34.908Z,19.90
2017-12-28T02:06:34.873Z,19.60
2017-12-28T02:07:34.825Z,19.10
2017-12-28T02:08:34.785Z,19.50
2017-12-28T02:09:34.743Z,19.50
2017-12-28T02:10:34.706Z,18.10
2017-12-28T02:11:34.670Z,21.30
2017-12-28T02:12:34.619Z,19.00
2017-12-28T02:13:34.580Z,19.80
2017-12-28T02:14:34.535Z,20.30
2017-12-28T02:15:34.497Z,20.40
2017-12-28T02:16:34.452Z,19.40
2017-12-28T02:17:34.412Z,19.40
2017-12-28T02:18:34.371Z,18.40
2017-12-28T02:19:34.332Z,18.60
2017-12-28T02:20:34.328Z,20.80
2017-12-28T02:21:34.265Z,19.90
2017-12-28T02:22:34.201Z,19.90
2017-12-28T02:23:34.180Z,19.50
2017-12-28T02:24:34.120Z,20.50
2017-12-28T02:25:34.077Z,20.30
2017-12-28T02:26:34.037Z,19.80
2017-12-28T02:27:34.005Z,19.30
2017-12-28T02:28:33.960Z,18.90
2017-12-28T02:29:33.914Z,18.50
2017-12-28T02:30:33.873Z,19.00
2017-12-28T02:31:33.827Z,19.50
2017-12-28T02:32:33.792Z,20.50
2017-12-28T02:33:33.749Z,20.00
2017-12-28T02:34:33.707Z,20.80
2017-12-28T02:35:33.666Z,20.10
2017-12-28T02:36:33.624Z,19.30
2017-12-28T02:37:33.589Z,21.40
2017-12-28T02:38:33.541Z,19.80
2017-12-28T02:39:33.502Z,18.60
2017-12-28T02:40:33.458Z,18.60
2017-12-28T02:41:33.415Z,18.10
2017-12-28T02:42:33.382Z,17.80
2017-12-28T02:43:33.338Z,16.90
2017-12-28T02:44:33.295Z,19.30
2017-12-28T02:45:33.252Z,18.20
2017-12-28T02:46:33.210Z,18.00
2017-12-28T02:47:33.170Z,18.90
2017-12-28T02:48:33.132Z,19.70
2017-12-28T02:49:33.103Z,18.30
2017-12-28T02:50:33.047Z,19.30
2017-12-28T02:51:33.004Z,19.80
2017-12-28T02:52:32.964Z,17.80
2017-12-28T02:53:32.923Z,20.60
2017-12-28T02:54:32.880Z,19.10
2017-12-28T02:55:32.838Z,19.50
2017-12-28T02:56:32.799Z,19.10
2017-12-28T02:57:32.761Z,19.60
2017-12-28T02:58:32.718Z,17.80
2017-12-28T02:59:32.673Z,18.40
2017-12-28T03:00:32.633Z,17.00
2017-12-28T03:01:32.600Z,18.90
2017-12-28T03:02:32.553Z,17.60
2017-12-28T03:03:32.511Z,17.10
2017-12-28T03:04:32.471Z,18.50
2017-12-28T03:05:32.428Z,18.30
2017-12-28T03:06:32.385Z,19.20
2017-12-28T03:07:32.345Z,21.10
2017-12-28T03:08:32.303Z,17.50
2017-12-28T03:09:32.263Z,18.00
2017-12-28T03:10:32.219Z,17.00
2017-12-28T03:11:32.189Z,18.90
2017-12-28T03:12:32.151Z,21.70
2017-12-28T03:13:32.102Z,19.00
2017-12-28T03:14:32.057Z,15.70
2017-12-28T03:15:32.020Z,19.50
2017-12-28T03:16:31.978Z,16.90
2017-12-28T03:17:31.935Z,18.10
2017-12-28T03:18:31.895Z,17.50
2017-12-28T03:19:31.852Z,17.90
2017-12-28T03:20:31.809Z,17.30
2017-12-28T03:21:31.769Z,19.40
2017-12-28T03:22:31.726Z,18.60
2017-12-28T03:23:31.689Z,17.50
2017-12-28T03:24:31.647Z,16.30
2017-12-28T03:25:31.612Z,16.80
2017-12-28T03:26:31.564Z,19.00
2017-12-28T03:27:31.537Z,22.40
2017-12-28T03:28:31.484Z,17.10
2017-12-28T03:29:31.444Z,18.70
2017-12-28T03:30:31.398Z,17.70
2017-12-28T03:31:31.362Z,19.20
2017-12-28T03:32:31.325Z,19.30
2017-12-28T03:33:31.279Z,19.50
2017-12-28T03:34:31.240Z,18.10
2017-12-28T03:35:31.195Z,18.20
2017-12-28T03:36:31.158Z,17.10
2017-12-28T03:37:31.113Z,17.60
2017-12-28T03:38:31.079Z,17.30
2017-12-28T03:39:31.031Z,16.70
2017-12-28T03:40:30.993Z,17.70
2017-12-28T03:41:30.953Z,16.30
2017-12-28T03:42:30.909Z,20.20
2017-12-28T03:43:30.870Z,20.70
2017-12-28T03:44:30.826Z,18.60
2017-12-28T03:45:30.785Z,16.60
2017-12-28T03:46:30.746Z,16.40
2017-12-28T03:47:30.706Z,17.20
2017-12-28T03:48:30.664Z,17.00
2017-12-28T03:49:30.620Z,17.20
2017-12-28T03:50:30.580Z,16.40
2017-12-28T03:51:30.552Z,19.00
2017-12-28T03:52:30.498Z,17.60
2017-12-28T03:53:30.464Z,18.30
2017-12-28T03:54:30.456Z,19.60
2017-12-28T03:55:30.376Z,17.90
2017-12-28T03:56:30.338Z,17.90
2017-12-28T03:57:30.294Z,20.20
2017-12-28T03:58:30.253Z,18.40
2017-12-28T03:59:30.214Z,17.50
2017-12-28T04:00:30.172Z,17.70
2017-12-28T04:01:30.130Z,19.40
2017-12-28T04:02:30.095Z,19.50
2017-12-28T04:03:30.049Z,17.50
2017-12-28T04:04:30.011Z,18.70
2017-12-28T04:05:29.965Z,19.30
2017-12-28T04:06:29.926Z,17.80
2017-12-28T04:07:29.884Z,17.60
2017-12-28T04:08:29.843Z,19.90
2017-12-28T04:09:29.808Z,18.10
2017-12-28T04:10:29.763Z,19.60
2017-12-28T04:11:29.720Z,19.50
2017-12-28T04:12:29.682Z,16.80
2017-12-28T04:13:29.637Z,18.90
2017-12-28T04:14:29.600Z,17.00
2017-12-28T04:15:29.555Z,18.00
2017-12-28T04:16:29.514Z,18.20
2017-12-28T04:17:29.483Z,18.40
2017-12-28T04:18:29.435Z,19.20
2017-12-28T04:19:29.405Z,21.20
2017-12-28T04:20:29.351Z,17.90
2017-12-28T04:21:29.315Z,18.20
2017-12-28T04:22:29.294Z,20.60
2017-12-28T04:23:29.228Z,20.30
2017-12-28T04:24:29.186Z,20.60
2017-12-28T04:25:29.146Z,26.80
2017-12-28T04:26:29.104Z,21.50
2017-12-28T04:27:29.069Z,18.60
2017-12-28T04:28:29.025Z,20.20
2017-12-28T04:29:28.982Z,18.40
2017-12-28T04:30:28.944Z,19.90
2017-12-28T04:31:28.924Z,18.80
2017-12-28T04:32:28.868Z,16.10
2017-12-28T04:33:28.820Z,18.80
2017-12-28T04:34:28.785Z,17.90
2017-12-28T04:35:28.737Z,17.30
2017-12-28T04:36:28.694Z,17.90
2017-12-28T04:37:28.663Z,19.50
2017-12-28T04:38:28.613Z,18.90
2017-12-28T04:39:28.572Z,18.80
2017-12-28T04:40:28.536Z,19.70
2017-12-28T04:41:28.490Z,18.00
2017-12-28T04:42:28.447Z,16.80
2017-12-28T04:43:28.409Z,16.90
2017-12-28T04:44:28.368Z,18.00
2017-12-28T04:45:28.328Z,22.30
2017-12-28T04:46:28.281Z,21.50
2017-12-28T04:47:28.246Z,17.80
2017-12-28T04:48:28.205Z,21.30
2017-12-28T04:49:28.165Z,16.60
2017-12-28T04:50:28.119Z,18.00
2017-12-28T04:51:28.080Z,16.80
2017-12-28T04:52:28.041Z,17.10
2017-12-28T04:53:28.010Z,16.60
2017-12-28T04:54:27.957Z,18.70
2017-12-28T04:55:27.916Z,16.60
2017-12-28T04:56:27.875Z,18.70
2017-12-28T04:57:27.837Z,16.50
2017-12-28T04:58:27.794Z,16.90
2017-12-28T04:59:27.753Z,18.30
2017-12-28T05:00:27.712Z,16.50
2017-12-28T05:01:27.673Z,18.20
2017-12-28T05:02:27.636Z,16.30
2017-12-28T05:03:27.601Z,17.40
2017-12-28T05:04:27.549Z,17.40
2017-12-28T05:05:27.510Z,16.20
2017-12-28T05:06:27.476Z,17.10
2017-12-28T05:07:27.428Z,18.30
2017-12-28T05:08:27.388Z,16.70
2017-12-28T05:09:27.346Z,17.50
2017-12-28T05:10:27.305Z,17.80
2017-12-28T05:11:27.263Z,18.90
2017-12-28T05:12:27.220Z,19.30
2017-12-28T05:13:27.180Z,20.90
2017-12-28T05:14:27.142Z,16.80
2017-12-28T05:15:27.107Z,15.90
2017-12-28T05:16:27.101Z,15.60
2017-12-28T05:17:27.017Z,14.80
2017-12-28T05:18:26.980Z,14.50
2017-12-28T05:19:26.942Z,16.20
2017-12-28T05:20:26.896Z,16.40
2017-12-28T05:21:26.857Z,16.10
2017-12-28T05:22:26.815Z,16.00
2017-12-28T05:23:26.772Z,14.20
2017-12-28T05:24:26.733Z,14.40
2017-12-28T05:25:26.715Z,15.20
2017-12-28T05:26:26.651Z,16.10
2017-12-28T05:27:26.610Z,16.70
2017-12-28T05:28:26.578Z,13.90
2017-12-28T05:29:26.532Z,16.00
2017-12-28T05:30:26.491Z,14.10
2017-12-28T05:31:26.476Z,15.50
2017-12-28T05:32:26.407Z,14.40
2017-12-28T05:33:26.365Z,15.10
2017-12-28T05:34:26.330Z,22.50
2017-12-28T05:35:26.283Z,17.80
2017-12-28T05:36:26.243Z,17.60
2017-12-28T05:37:26.203Z,16.60
2017-12-28T05:38:26.161Z,14.70
2017-12-28T05:39:26.122Z,16.10
2017-12-28T05:40:26.081Z,15.50
2017-12-28T05:41:26.049Z,16.80
2017-12-28T05:42:26.006Z,14.00
2017-12-28T05:43:25.958Z,13.80
2017-12-28T05:44:25.917Z,13.80
2017-12-28T05:45:25.879Z,14.90
2017-12-28T05:46:25.840Z,14.60
2017-12-28T05:47:25.801Z,14.10
2017-12-28T05:48:25.772Z,15.80
2017-12-28T05:49:25.715Z,13.20
2017-12-28T05:50:25.674Z,14.60
2017-12-28T05:51:25.634Z,13.30
2017-12-28T05:52:25.598Z,14.20
2017-12-28T05:53:25.552Z,14.60
2017-12-28T05:54:25.517Z,14.50
2017-12-28T05:55:25.475Z,14.10
2017-12-28T05:56:25.428Z,16.00
2017-12-28T05:57:25.388Z,13.40
2017-12-28T05:58:25.348Z,15.10
2017-12-28T05:59:25.310Z,15.00
2017-12-28T06:00:25.271Z,14.20
2017-12-28T06:01:25.228Z,15.10
2017-12-28T06:02:25.184Z,14.80
2017-12-28T06:03:25.145Z,15.10
2017-12-28T06:04:25.103Z,14.40
2017-12-28T06:05:25.064Z,15.30
2017-12-28T06:06:25.023Z,14.60
2017-12-28T06:07:24.987Z,13.70
2017-12-28T06:08:24.943Z,16.00
2017-12-28T06:09:24.903Z,12.90
2017-12-28T06:10:24.858Z,14.50
2017-12-28T06:11:24.827Z,14.40
2017-12-28T06:12:24.778Z,13.90
2017-12-28T06:13:24.740Z,13.00
2017-12-28T06:14:24.696Z,12.10
2017-12-28T06:15:24.657Z,16.20
2017-12-28T06:16:24.616Z,15.00
2017-12-28T06:17:24.576Z,14.10
2017-12-28T06:18:24.535Z,14.30
2017-12-28T06:19:24.495Z,14.20
2017-12-28T06:20:24.459Z,14.00
2017-12-28T06:21:24.410Z,16.10
2017-12-28T06:22:24.374Z,12.50
2017-12-28T06:23:24.332Z,14.70
2017-12-28T06:24:24.291Z,13.40
2017-12-28T06:25:24.251Z,13.70
2017-12-28T06:26:24.210Z,14.60
2017-12-28T06:27:24.167Z,13.20
2017-12-28T06:28:24.133Z,14.30
2017-12-28T06:29:24.089Z,13.00
2017-12-28T06:30:24.047Z,14.10
2017-12-28T06:31:24.012Z,13.40
2017-12-28T06:32:23.970Z,13.30
2017-12-28T06:33:23.927Z,13.60
2017-12-28T06:34:23.885Z,14.90
2017-12-28T06:35:23.844Z,13.80
2017-12-28T06:36:23.809Z,14.80
2017-12-28T06:37:23.765Z,14.10
2017-12-28T06:38:23.725Z,14.00
2017-12-28T06:39:23.683Z,14.30
2017-12-28T06:40:23.642Z,14.30
2017-12-28T06:41:23.603Z,13.60
2017-12-28T06:42:23.560Z,14.50
2017-12-28T06:43:23.521Z,13.50
2017-12-28T06:44:23.480Z,13.90
2017-12-28T06:45:23.440Z,13.50
2017-12-28T06:46:23.399Z,14.70
2017-12-28T06:47:23.360Z,14.10
2017-12-28T06:48:23.326Z,17.50
2017-12-28T06:49:23.275Z,13.90
2017-12-28T06:50:23.233Z,15.60
2017-12-28T06:51:23.192Z,14.40
2017-12-28T06:52:23.159Z,15.30
2017-12-28T06:53:23.116Z,13.50
2017-12-28T06:54:23.071Z,16.10
2017-12-28T06:55:23.029Z,15.10
2017-12-28T06:56:22.991Z,13.10
2017-12-28T06:57:22.948Z,16.60
2017-12-28T06:58:22.907Z,14.40
2017-12-28T06:59:22.868Z,15.40
2017-12-28T07:00:22.846Z,13.10
2017-12-28T07:01:22.785Z,15.40
2017-12-28T07:02:22.744Z,15.70
2017-12-28T07:03:22.705Z,15.40
2017-12-28T07:04:22.664Z,15.10
2017-12-28T07:05:22.627Z,14.80
2017-12-28T07:06:22.579Z,13.30
2017-12-28T07:07:22.541Z,14.30
2017-12-28T07:08:22.503Z,16.20
2017-12-28T07:09:22.460Z,14.40
2017-12-28T07:10:22.418Z,14.60
2017-12-28T07:11:22.376Z,14.30
2017-12-28T07:12:22.340Z,15.00
2017-12-28T07:13:22.295Z,15.50
2017-12-28T07:14:22.257Z,14.40
2017-12-28T07:15:22.213Z,15.60
2017-12-28T07:16:22.173Z,15.50
2017-12-28T07:17:22.133Z,16.00
2017-12-28T07:18:22.090Z,15.90
2017-12-28T07:19:22.051Z,15.20
2017-12-28T07:20:22.010Z,15.70
2017-12-28T07:21:21.969Z,15.70
2017-12-28T07:22:21.929Z,15.80
2017-12-28T07:23:21.885Z,15.20
2017-12-28T07:24:21.853Z,15.10
2017-12-28T07:25:21.811Z,20.00
2017-12-28T07:26:21.780Z,14.50
2017-12-28T07:27:21.729Z,15.80
2017-12-28T07:28:21.681Z,18.00
2017-12-28T07:29:21.642Z,17.20
2017-12-28T07:30:21.600Z,14.70
2017-12-28T07:31:21.570Z,16.30
2017-12-28T07:32:21.517Z,15.60
2017-12-28T07:33:21.477Z,15.80
2017-12-28T07:34:21.436Z,15.70
2017-12-28T07:35:21.397Z,14.50
2017-12-28T07:36:21.366Z,16.00
2017-12-28T07:37:21.312Z,15.00
2017-12-28T07:38:21.280Z,18.10
2017-12-28T07:39:21.232Z,15.50
2017-12-28T07:40:21.190Z,14.90
2017-12-28T07:41:21.180Z,16.00
2017-12-28T07:42:21.112Z,16.60
2017-12-28T07:43:21.068Z,16.20
2017-12-28T07:44:21.055Z,15.30
2017-12-28T07:45:20.989Z,15.50
2017-12-28T07:46:20.973Z,15.80
2017-12-28T07:47:20.904Z,14.30
2017-12-28T07:48:20.864Z,14.80
2017-12-28T07:49:20.822Z,15.80
2017-12-28T07:50:20.782Z,17.40
2017-12-28T07:51:20.741Z,14.10
2017-12-28T07:52:20.700Z,14.20
2017-12-28T07:53:20.659Z,16.60
2017-12-28T07:54:20.621Z,16.50
2017-12-28T07:55:20.588Z,17.80
2017-12-28T07:56:20.541Z,13.70
2017-12-28T07:57:20.507Z,15.60
2017-12-28T07:58:20.472Z,16.10
2017-12-28T07:59:20.417Z,14.90
2017-12-28T08:00:20.378Z,14.80
2017-12-28T08:01:20.333Z,15.00
2017-12-28T08:02:20.290Z,14.00
2017-12-28T08:03:20.284Z,14.90
2017-12-28T08:04:20.213Z,15.50
2017-12-28T08:05:20.168Z,15.00
2017-12-28T08:06:20.141Z,16.30
2017-12-28T08:07:20.087Z,16.20
2017-12-28T08:08:20.048Z,16.30
2017-12-28T08:09:20.013Z,15.70
2017-12-28T08:10:19.965Z,14.00
2017-12-28T08:11:19.951Z,15.00
2017-12-28T08:12:19.900Z,16.00
2017-12-28T08:13:19.842Z,15.70
2017-12-28T08:14:19.800Z,16.20
2017-12-28T08:15:19.777Z,16.60
2017-12-28T08:16:19.738Z,19.80
2017-12-28T08:17:19.691Z,15.80
2017-12-28T08:18:19.637Z,15.30
2017-12-28T08:19:19.596Z,20.40
2017-12-28T08:20:19.566Z,15.80
2017-12-28T08:21:19.515Z,20.10
2017-12-28T08:22:19.475Z,17.50
2017-12-28T08:23:19.435Z,21.70
2017-12-28T08:24:19.402Z,17.70
2017-12-28T08:25:19.364Z,17.00
2017-12-28T08:26:19.316Z,17.20
2017-12-28T08:27:19.273Z,17.20
2017-12-28T08:28:19.234Z,14.90
2017-12-28T08:29:19.194Z,16.70
2017-12-28T08:30:19.149Z,15.40
2017-12-28T08:31:19.108Z,15.40
2017-12-28T08:32:19.074Z,16.50
2017-12-28T08:33:19.029Z,15.60
2017-12-28T08:34:18.986Z,14.90
2017-12-28T08:35:18.947Z,17.90
2017-12-28T08:36:18.913Z,16.40
2017-12-28T08:37:18.864Z,16.20
2017-12-28T08:38:18.837Z,14.50
2017-12-28T08:39:18.781Z,15.70
2017-12-28T08:40:18.742Z,15.50
2017-12-28T08:41:18.702Z,16.60
2017-12-28T08:42:18.670Z,14.40
2017-12-28T08:43:18.618Z,13.30
2017-12-28T08:44:18.590Z,14.50
2017-12-28T08:45:18.545Z,14.20
2017-12-28T08:46:18.505Z,14.70
2017-12-28T08:47:18.466Z,15.70
2017-12-28T08:48:18.416Z,13.40
2017-12-28T08:49:18.378Z,13.30
2017-12-28T08:50:18.331Z,13.70
2017-12-28T08:51:18.293Z,17.60
2017-12-28T08:52:18.250Z,12.70
2017-12-28T08:53:18.225Z,13.00
2017-12-28T08:54:18.168Z,15.70
2017-12-28T08:55:18.130Z,12.60
2017-12-28T08:56:18.086Z,13.20
2017-12-28T08:57:18.050Z,12.30
2017-12-28T08:58:18.017Z,13.80
2017-12-28T08:59:17.965Z,11.40
2017-12-28T09:00:17.929Z,13.00
2017-12-28T09:01:17.883Z,14.50
2017-12-28T09:02:17.844Z,11.20
2017-12-28T09:03:17.801Z,14.00
2017-12-28T09:04:17.761Z,14.40
2017-12-28T09:05:17.723Z,12.60
2017-12-28T09:06:17.680Z,11.60
2017-12-28T09:07:17.637Z,11.20
2017-12-28T09:08:17.598Z,11.90
2017-12-28T09:09:17.576Z,11.60
2017-12-28T09:10:17.513Z,14.00
2017-12-28T09:11:17.475Z,10.80
2017-12-28T09:12:17.434Z,9.90
2017-12-28T09:13:17.400Z,12.90
2017-12-28T09:14:17.353Z,10.30
2017-12-28T09:15:17.315Z,11.20
2017-12-28T09:16:17.275Z,10.70
2017-12-28T09:17:17.229Z,10.40
2017-12-28T09:18:17.194Z,13.00
2017-12-28T09:19:17.185Z,9.80
2017-12-28T09:20:17.109Z,11.90
2017-12-28T09:21:17.077Z,9.80
2017-12-28T09:22:17.025Z,13.80
2017-12-28T09:23:17.014Z,12.60
2017-12-28T09:24:16.952Z,11.50
2017-12-28T09:25:16.914Z,13.00
2017-12-28T09:26:16.868Z,10.80
2017-12-28T09:27:16.841Z,10.10
2017-12-28T09:28:16.782Z,11.30
2017-12-28T09:29:16.740Z,11.20
2017-12-28T09:30:16.699Z,10.00
2017-12-28T09:31:16.658Z,13.30
2017-12-28T09:32:16.621Z,11.30
2017-12-28T09:33:16.578Z,9.40
2017-12-28T09:34:16.536Z,10.10
2017-12-28T09:35:16.495Z,11.50
2017-12-28T09:36:16.453Z,11.00
2017-12-28T09:37:16.411Z,11.40
2017-12-28T09:38:16.371Z,10.90
2017-12-28T09:39:16.339Z,11.00
2017-12-28T09:40:16.289Z,10.90
2017-12-28T09:41:16.256Z,10.60
2017-12-28T09:42:16.206Z,10.30
2017-12-28T09:43:16.165Z,11.90
2017-12-28T09:44:16.159Z,9.20
2017-12-28T09:45:16.096Z,10.10
2017-12-28T09:46:16.043Z,11.30
2017-12-28T09:47:16.003Z,12.00
2017-12-28T09:48:15.960Z,10.70
2017-12-28T09:49:15.921Z,10.00
2017-12-28T09:50:15.886Z,9.40
2017-12-28T09:51:15.837Z,10.50
2017-12-28T09:52:15.805Z,9.60
2017-12-28T09:53:15.755Z,10.00
2017-12-28T09:54:15.728Z,10.40
2017-12-28T09:55:15.677Z,10.90
2017-12-28T09:56:15.636Z,9.10
2017-12-28T09:57:15.594Z,11.90
2017-12-28T09:58:15.550Z,12.20
2017-12-28T09:59:15.517Z,9.50
2017-12-28T10:00:15.478Z,9.70
2017-12-28T10:01:15.431Z,8.70
2017-12-28T10:02:15.387Z,8.80
2017-12-28T10:03:15.354Z,8.40
2017-12-28T10:04:15.308Z,11.20
2017-12-28T10:05:15.267Z,8.20
2017-12-28T10:06:15.227Z,8.40
2017-12-28T10:07:15.193Z,7.90
2017-12-28T10:08:15.206Z,11.10
2017-12-28T10:09:15.127Z,10.80
2017-12-28T10:10:15.059Z,8.90
2017-12-28T10:11:15.056Z,8.80
2017-12-28T10:12:14.980Z,8.60
2017-12-28T10:13:14.940Z,7.80
2017-12-28T10:14:14.897Z,8.50
2017-12-28T10:15:14.858Z,7.80
2017-12-28T10:16:14.874Z,8.40
2017-12-28T10:17:14.777Z,8.50
2017-12-28T10:18:14.733Z,6.80
2017-12-28T10:19:14.725Z,7.30
2017-12-28T10:20:14.657Z,7.50
2017-12-28T10:21:14.631Z,8.30
2017-12-28T10:22:14.627Z,8.70
2017-12-28T10:23:14.530Z,7.30
2017-12-28T10:24:14.497Z,9.20
2017-12-28T10:25:14.452Z,7.80
2017-12-28T10:26:14.408Z,6.20
2017-12-28T10:27:14.366Z,7.30
2017-12-28T10:28:14.339Z,7.50
2017-12-28T10:29:14.293Z,9.00
2017-12-28T10:30:14.240Z,6.10
2017-12-28T10:31:14.207Z,8.00
2017-12-28T10:32:14.160Z,8.30
2017-12-28T10:33:14.137Z,8.80
2017-12-28T10:34:14.083Z,6.80
2017-12-28T10:35:14.054Z,5.10
2017-12-28T10:36:14.004Z,7.40
2017-12-28T10:37:13.955Z,6.00
2017-12-28T10:38:13.923Z,6.20
2017-12-28T10:39:13.873Z,6.90
2017-12-28T10:40:13.840Z,5.70
2017-12-28T10:41:13.789Z,6.10
2017-12-28T10:42:13.748Z,7.20
2017-12-28T10:43:13.710Z,6.50
2017-12-28T10:44:13.676Z,5.80
2017-12-28T10:45:13.628Z,5.30
2017-12-28T10:46:13.587Z,7.10
2017-12-28T10:47:13.558Z,6.60
2017-12-28T10:48:13.509Z,6.70
2017-12-28T10:49:13.468Z,6.10
2017-12-28T10:50:13.422Z,6.70
2017-12-28T10:51:13.380Z,6.40
2017-12-28T10:52:13.342Z,4.50
2017-12-28T10:53:13.302Z,8.00
2017-12-28T10:54:13.263Z,7.80
2017-12-28T10:55:13.215Z,6.60
2017-12-28T10:56:13.175Z,7.70
2017-12-28T10:57:13.135Z,6.40
2017-12-28T10:58:13.098Z,5.10
2017-12-28T10:59:13.050Z,8.00
2017-12-28T11:00:13.010Z,7.10
2017-12-28T11:01:12.970Z,5.80
2017-12-28T11:02:12.940Z,8.90
2017-12-28T11:03:12.889Z,4.90
2017-12-28T11:04:12.850Z,5.10
2017-12-28T11:05:12.804Z,10.20
2017-12-28T11:06:12.764Z,7.10
2017-12-28T11:07:12.725Z,5.90
2017-12-28T11:08:12.700Z,5.40
2017-12-28T11:09:12.649Z,6.60
2017-12-28T11:10:12.620Z,5.30
2017-12-28T11:11:12.576Z,6.10
2017-12-28T11:12:12.529Z,4.70
2017-12-28T11:13:12.480Z,5.30
2017-12-28T11:14:12.438Z,7.90
2017-12-28T11:15:12.401Z,6.20
2017-12-28T11:16:12.355Z,7.30
2017-12-28T11:17:12.315Z,5.90
2017-12-28T11:18:12.272Z,6.60
2017-12-28T11:19:12.232Z,6.90
2017-12-28T11:20:12.189Z,6.80
2017-12-28T11:21:12.149Z,5.60
2017-12-28T11:22:12.109Z,7.60
2017-12-28T11:23:12.069Z,5.40
2017-12-28T11:24:12.044Z,5.80
2017-12-28T11:25:11.982Z,6.60
2017-12-28T11:26:11.949Z,6.30
2017-12-28T11:27:11.911Z,5.90
2017-12-28T11:28:11.860Z,9.50
2017-12-28T11:29:11.824Z,7.50
2017-12-28T11:30:11.786Z,5.00
2017-12-28T11:31:11.738Z,6.20
2017-12-28T11:32:11.703Z,5.00
2017-12-28T11:33:11.668Z,6.10
2017-12-28T11:34:11.616Z,6.50
2017-12-28T11:35:11.575Z,9.40
2017-12-28T11:36:11.534Z,6.70
2017-12-28T11:37:11.495Z,7.50
2017-12-28T11:38:11.453Z,6.30
2017-12-28T11:39:11.413Z,5.00
2017-12-28T11:40:11.374Z,7.20
2017-12-28T11:41:11.334Z,6.70
2017-12-28T11:42:11.290Z,5.70
2017-12-28T11:43:11.246Z,8.60
2017-12-28T11:44:11.209Z,5.30
2017-12-28T11:45:11.178Z,8.20
2017-12-28T11:46:11.130Z,5.30
2017-12-28T11:47:11.094Z,8.00
2017-12-28T11:48:11.042Z,8.50
2017-12-28T11:49:11.006Z,6.60
2017-12-28T11:50:10.965Z,5.90
2017-12-28T11:51:10.917Z,6.50
2017-12-28T11:52:10.908Z,7.50
2017-12-28T11:53:10.860Z,9.20
2017-12-28T11:54:10.795Z,7.50
2017-12-28T11:55:10.755Z,8.50
2017-12-28T11:56:10.726Z,8.20
2017-12-28T11:57:10.685Z,7.80
2017-12-28T11:58:10.638Z,7.10
2017-12-28T11:59:10.594Z,7.40
2017-12-28T12:00:10.558Z,9.50
2017-12-28T12:01:10.504Z,7.40
2017-12-28T12:02:10.478Z,7.80
2017-12-28T12:03:10.431Z,8.80
2017-12-28T12:04:10.405Z,6.20
2017-12-28T12:05:10.352Z,6.20
2017-12-28T12:06:10.309Z,6.40
2017-12-28T12:07:10.267Z,6.30
2017-12-28T12:08:10.228Z,7.70
2017-12-28T12:09:10.203Z,7.10
2017-12-28T12:10:10.140Z,8.20
2017-12-28T12:11:10.105Z,6.90
2017-12-28T12:12:10.105Z,6.30
2017-12-28T12:13:10.021Z,5.70
2017-12-28T12:14:09.975Z,6.50
2017-12-28T12:15:09.939Z,6.10
2017-12-28T12:16:09.892Z,8.80
2017-12-28T12:17:09.852Z,8.70
2017-12-28T12:18:09.814Z,9.50
2017-12-28T12:19:09.773Z,7.40
2017-12-28T12:20:09.731Z,9.90
2017-12-28T12:21:09.689Z,9.60
2017-12-28T12:22:09.647Z,6.90
2017-12-28T12:23:09.610Z,8.80
2017-12-28T12:24:09.566Z,5.80
2017-12-28T12:25:09.531Z,9.10
2017-12-28T12:26:09.481Z,5.50
2017-12-28T12:27:09.448Z,7.10
2017-12-28T12:28:09.413Z,9.40
2017-12-28T12:29:09.402Z,9.00
2017-12-28T12:30:09.320Z,8.50
2017-12-28T12:31:09.283Z,5.20
2017-12-28T12:32:09.238Z,6.70
2017-12-28T12:33:09.212Z,5.80
2017-12-28T12:34:09.155Z,7.60
2017-12-28T12:35:09.116Z,7.60
2017-12-28T12:36:09.074Z,6.60
2017-12-28T12:37:09.031Z,6.80
2017-12-28T12:38:08.994Z,7.40
2017-12-28T12:39:08.960Z,6.80
2017-12-28T12:40:08.914Z,5.20
2017-12-28T12:41:08.870Z,7.50
2017-12-28T12:42:08.828Z,8.90
2017-12-28T12:43:08.784Z,10.50
2017-12-28T12:44:08.745Z,9.80
2017-12-28T12:45:08.704Z,6.80
2017-12-28T12:46:08.664Z,7.70
2017-12-28T12:47:08.621Z,7.70
2017-12-28T12:48:08.581Z,7.00
2017-12-28T12:49:08.543Z,8.20
2017-12-28T12:50:08.506Z,7.50
2017-12-28T12:51:08.479Z,9.30
2017-12-28T12:52:08.418Z,8.30
2017-12-28T12:53:08.379Z,10.10
2017-12-28T12:54:08.351Z,10.40
2017-12-28T12:55:08.303Z,5.30
2017-12-28T12:56:08.259Z,7.70
2017-12-28T12:57:08.310Z,7.90
2017-12-28T12:58:08.171Z,10.20